地図

経路データ

SID SEASON NUMBER BASIN SUBBASIN NAME ISO_TIME NATURE LAT LON WMO_WIND WMO_PRES WMO_AGENCY TRACK_TYPE DIST2LAND LANDFALL IFLAG USA_AGENCY USA_ATCF_ID USA_LAT USA_LON USA_RECORD USA_STATUS USA_WIND USA_PRES USA_SSHS USA_R34_NE USA_R34_SE USA_R34_SW USA_R34_NW USA_R50_NE USA_R50_SE USA_R50_SW USA_R50_NW USA_R64_NE USA_R64_SE USA_R64_SW USA_R64_NW USA_POCI USA_ROCI USA_RMW USA_EYE TOKYO_LAT TOKYO_LON TOKYO_GRADE TOKYO_WIND TOKYO_PRES TOKYO_R50_DIR TOKYO_R50_LONG TOKYO_R50_SHORT TOKYO_R30_DIR TOKYO_R30_LONG TOKYO_R30_SHORT TOKYO_LAND CMA_LAT CMA_LON CMA_CAT CMA_WIND CMA_PRES HKO_LAT HKO_LON HKO_CAT HKO_WIND HKO_PRES NEWDELHI_LAT NEWDELHI_LON NEWDELHI_GRADE NEWDELHI_WIND NEWDELHI_PRES NEWDELHI_CI NEWDELHI_DP NEWDELHI_POCI REUNION_LAT REUNION_LON REUNION_TYPE REUNION_WIND REUNION_PRES REUNION_TNUM REUNION_CI REUNION_RMW REUNION_R34_NE REUNION_R34_SE REUNION_R34_SW REUNION_R34_NW REUNION_R50_NE REUNION_R50_SE REUNION_R50_SW REUNION_R50_NW REUNION_R64_NE REUNION_R64_SE REUNION_R64_SW REUNION_R64_NW BOM_LAT BOM_LON BOM_TYPE BOM_WIND BOM_PRES BOM_TNUM BOM_CI BOM_RMW BOM_R34_NE BOM_R34_SE BOM_R34_SW BOM_R34_NW BOM_R50_NE BOM_R50_SE BOM_R50_SW BOM_R50_NW BOM_R64_NE BOM_R64_SE BOM_R64_SW BOM_R64_NW BOM_ROCI BOM_POCI BOM_EYE BOM_POS_METHOD BOM_PRES_METHOD NADI_LAT NADI_LON NADI_CAT NADI_WIND NADI_PRES WELLINGTON_LAT WELLINGTON_LON WELLINGTON_WIND WELLINGTON_PRES DS824_LAT DS824_LON DS824_STAGE DS824_WIND DS824_PRES TD9636_LAT TD9636_LON TD9636_STAGE TD9636_WIND TD9636_PRES TD9635_LAT TD9635_LON TD9635_WIND TD9635_PRES TD9635_ROCI NEUMANN_LAT NEUMANN_LON NEUMANN_CLASS NEUMANN_WIND NEUMANN_PRES MLC_LAT MLC_LON MLC_CLASS MLC_WIND MLC_PRES USA_GUST BOM_GUST BOM_GUST_PER REUNION_GUST REUNION_GUST_PER USA_SEAHGT USA_SEARAD_NE USA_SEARAD_SE USA_SEARAD_SW USA_SEARAD_NW STORM_SPEED STORM_DIR
1912209N20088 1912 31 NI BB NOT_NAMED 1912-07-27 00:00:00 TS 20.0000 88.1000 main 138 123 _________O____ -1 20.0000 88.1000 TC 34 2 311
1912209N20088 1912 31 NI BB NOT_NAMED 1912-07-27 03:00:00 TS 20.0733 88.0100 main 123 100 _________PO___ -1 20.1100 87.9650 TC 36 20.0000 88.1000 2 3 302
1912209N20088 1912 31 NI BB NOT_NAMED 1912-07-27 06:00:00 TS 20.1629 87.8273 main 100 83 _________OP___ -1 20.2000 87.8000 TC 39 20.1072 87.8681 2 4 294
1912209N20088 1912 31 NI BB NOT_NAMED 1912-07-27 09:00:00 TS 20.2334 87.6209 main 83 68 _________PP___ -1 20.2575 87.5925 TC 42 20.2013 87.6588 2 4 289
1912209N20088 1912 31 NI BB NOT_NAMED 1912-07-27 12:00:00 TS 20.2849 87.4475 main 61 61 _________OP___ -1 20.3000 87.4000 TC 45 20.2698 87.4951 2 3 290
1912209N20088 1912 31 NI BB NOT_NAMED 1912-07-27 15:00:00 TS 20.3287 87.3462 main 53 53 _________PO___ -1 20.3574 87.2925 TC 41 20.3000 87.4000 3 2 292
1912209N20088 1912 31 NI BB NOT_NAMED 1912-07-27 18:00:00 TS 20.3445 87.2884 main 53 53 _________OP___ -1 20.4000 87.2000 TC 37 20.2890 87.3768 3 1 262
1912209N20088 1912 31 NI BB NOT_NAMED 1912-07-27 21:00:00 TS 20.3169 87.2558 main 53 38 _________PP___ -1 20.3618 87.1619 TC 33 20.2721 87.3497 3 2 271
1912209N20088 1912 31 NI BB NOT_NAMED 1912-07-28 00:00:00 TS 20.3471 87.0614 main 38 0 _________OP___ -1 20.4000 86.9000 TC 30 20.2943 87.2228 3 7 287
1912209N20088 1912 31 NI BB NOT_NAMED 1912-07-28 03:00:00 TS 20.5241 86.5277 main 0 0 _________PO___ -1 20.6482 86.1554 TC 30 20.4000 86.9000 1 13 291
1912209N20088 1912 31 NI BB NOT_NAMED 1912-07-28 06:00:00 TS 20.8247 85.7222 main 0 0 _________OP___ -1 21.0000 85.2000 TC 30 20.6495 86.2443 1 17 292
1912209N20088 1912 31 NI BB NOT_NAMED 1912-07-28 09:00:00 TS 21.1643 84.8627 main 0 0 _________PP___ -1 21.3498 84.3350 TC 30 20.9788 85.3905 1 18 293
1912209N20088 1912 31 NI BB NOT_NAMED 1912-07-28 12:00:00 TS 21.5216 83.9705 main 0 0 _________OP___ -1 21.7000 83.5000 TC 30 21.3432 84.4410 1 18 293
1912209N20088 1912 31 NI BB NOT_NAMED 1912-07-28 15:00:00 TS 21.8572 83.1173 main 0 0 _________PO___ -1 22.0144 82.7346 TC 30 21.7000 83.5000 1 16 293
1912209N20088 1912 31 NI BB NOT_NAMED 1912-07-28 18:00:00 TS 22.1419 82.4077 main 0 0 _________OP___ -1 22.3000 82.0000 TC 30 21.9839 82.8153 1 14 293
1912209N20088 1912 31 NI BB NOT_NAMED 1912-07-28 21:00:00 TS 22.3985 81.7418 main 0 0 _________PP___ -1 22.5406 81.3386 TC 30 22.2565 82.1450 1 14 291
1912209N20088 1912 31 NI BB NOT_NAMED 1912-07-29 00:00:00 TS 22.6631 80.9512 main 0 0 _________OP___ -1 22.8000 80.5000 TC 30 22.5262 81.4024 1 18 289
1912209N20088 1912 31 NI BB NOT_NAMED 1912-07-29 03:00:00 TS 22.9791 79.8704 main 0 0 _________PO___ -1 23.1583 79.2408 TC 30 22.8000 80.5000 1 23 286
1912209N20088 1912 31 NI BB NOT_NAMED 1912-07-29 06:00:00 TS 23.3061 78.5762 main 0 0 _________OP___ -1 23.5000 77.8000 TC 30 23.1123 79.3525 1 25 284
1912209N20088 1912 31 NI AS NOT_NAMED 1912-07-29 09:00:00 TS 23.5768 77.2532 main 0 0 _________PP___ -1 23.7357 76.4718 TC 30 23.4178 78.0347 1 25 281
1912209N20088 1912 31 NI AS NOT_NAMED 1912-07-29 12:00:00 TS 23.7945 75.8496 main 0 0 _________OP___ -1 23.9000 75.1000 TC 30 23.6890 76.5993 1 27 278
1912209N20088 1912 31 NI AS NOT_NAMED 1912-07-29 15:00:00 TS 23.9645 74.3649 main 0 0 _________PO___ -1 24.0289 73.6298 TC 30 23.9000 75.1000 1 27 276
1912209N20088 1912 31 NI AS NOT_NAMED 1912-07-29 18:00:00 TS 24.0620 72.9472 main 0 0 _________OP___ -1 24.1000 72.1000 TC 30 24.0334 73.5826 1 27 273
1912209N20088 1912 31 NI AS NOT_NAMED 1912-07-29 21:00:00 TS 24.1070 71.4559 main 0 0 _________PP___ -1 24.1180 70.5525 TC 30 24.0998 72.0583 1 27 271
1912209N20088 1912 31 NI AS NOT_NAMED 1912-07-30 00:00:00 TS 24.1108 70.0198 main 0 0 _________OP___ -1 24.1000 69.0000 TC 30 24.1162 70.5296 1 22 270
1912209N20088 1912 31 NI AS NOT_NAMED 1912-07-30 03:00:00 NR 24.1000 69.0000 main 0 __________O___ -1 TC 24.1000 69.0000 1 19 269

IBTrACS Databaseについて

本データベースは、米国NOAAが公開する1842年以降の世界の熱帯低気圧のベストトラックデータアーカイブInternational Best Track Archive for Climate Stewardship (IBTrACS)を、ウェブで閲覧しやすい形式に変換したものです。

最終更新日:2021-12-06